Dublin, Ireland

10:00 PM GMT on January 26, 2015 (GMT +0000)
Blackrock, Co. Dublin | Change Station
CLOSE
Current Station
Personal Weather Station
Location: Dublin, LEINSTER
Elevation: 131 ft
Nearby Weather Stations

Elev 131 ft 53.30 °N, 6.18 °W | Updated 10 minutes ago

Scattered Clouds
Scattered Clouds
43.0 °F
Feels Like 39 °F
N
6.0
Wind Variable Wind from West
Gusts 7.6 mph

Today
High -- | Low -- °F
--% Chance of Precip.
Yesterday
High -- | Low -- °F
Precip. -- in
8:19 AM 4:56 PM
Waxing Crescent, 47% visible
Pressure 30.39 in
Visibility 6.2 miles
Clouds Few 2200 ft
Scattered Clouds 22000 ft
Windchill 39 °F
Dew Point 37 °F
Humidity 79%
Rainfall 0.00 in
Snow Depth Not available.
UV 0 out of 12
Pollen Not available.
Air Quality Not available.
Flu Activity Not available.
METAR EIDW 262130Z 26011KT 9999 FEW022 SCT220 05/03 Q1029 NOSIG

More Conditions Fewer Conditions

Pressure 30.39 in
Visibility 6.2 miles
Clouds Few 2200 ft
Scattered Clouds 22000 ft
Windchill 39 °F
Dew Point 37 °F
Humidity 79%
Rainfall 0.00 in
Snow Depth Not available.
UV 0 out of 12
Pollen Not available.
Air Quality Not available.
Flu Activity Not available.
METAR EIDW 262130Z 26011KT 9999 FEW022 SCT220 05/03 Q1029 NOSIG

More Conditions Fewer Conditions

10-Day Weather Forecast

Almanac

Astronomy

Jan. 26, 2015 Rise Set
Actual Time
Civil Twilight
Nautical Twilight
Astronomical Twilight
Moon
Length of Visible Light
Length of Day
Tomorrow will be .
, % of the Moon is Illuminated

Today's Extremes

Country Highs Country Lows

Community

WunderPhotos

Upload Photos

1,790,379 photos uploaded!

WunderBlogs® & News

Nearby

Air Quality

  Air Quality AQ Index Pollutant
Not available.

Snow Depth

Station Depth Elevation

Earthquake Activity

City Distance Mag. Time & Date
Minimum magnitude displayed is 2.5.

Coastal Water Temperatures

Place Temperature

Nearby Weather Stations